createdAt,value
2023-08-21T00:01:53.642Z,12.32
2023-08-21T00:03:55.152Z,12.30
2023-08-21T00:05:57.092Z,12.05
2023-08-21T00:07:58.692Z,12.35
2023-08-21T00:10:00.194Z,12.50
2023-08-21T00:12:02.012Z,12.82
2023-08-21T00:14:03.683Z,12.50
2023-08-21T00:16:05.220Z,12.07
2023-08-21T00:18:07.018Z,13.38
2023-08-21T00:20:08.949Z,13.05
2023-08-21T00:22:10.384Z,13.68
2023-08-21T00:24:11.979Z,13.48
2023-08-21T00:26:13.497Z,13.43
2023-08-21T00:28:15.305Z,13.20
2023-08-21T00:30:16.938Z,13.15
2023-08-21T00:32:18.480Z,12.88
2023-08-21T00:34:19.916Z,12.90
2023-08-21T00:36:21.605Z,12.57
2023-08-21T00:38:23.278Z,13.25
2023-08-21T00:40:24.703Z,13.45
2023-08-21T00:42:26.323Z,12.70
2023-08-21T00:44:27.896Z,12.13
2023-08-21T00:46:29.453Z,12.52
2023-08-21T00:48:31.096Z,12.43
2023-08-21T00:50:32.750Z,13.45
2023-08-21T00:52:35.826Z,13.43
2023-08-21T00:54:38.085Z,12.45
2023-08-21T00:56:39.867Z,14.60
2023-08-21T00:58:41.687Z,13.63
2023-08-21T01:00:46.367Z,13.38
2023-08-21T01:02:48.254Z,13.15
2023-08-21T01:04:49.697Z,13.80
2023-08-21T01:06:51.558Z,13.80
2023-08-21T01:08:53.189Z,12.82
2023-08-21T01:11:06.969Z,13.18
2023-08-21T01:13:33.823Z,13.15
2023-08-21T01:15:35.492Z,14.68
2023-08-21T01:17:41.410Z,14.75
2023-08-21T01:19:45.628Z,14.02
2023-08-21T01:21:47.309Z,14.10
2023-08-21T01:23:48.731Z,13.55
2023-08-21T01:25:50.404Z,14.07
2023-08-21T01:27:52.228Z,13.95
2023-08-21T01:29:54.775Z,14.10
2023-08-21T01:32:33.874Z,13.35
2023-08-21T01:34:38.176Z,14.02
2023-08-21T01:36:40.775Z,13.25
2023-08-21T01:38:42.772Z,13.93
2023-08-21T01:40:44.378Z,13.23
2023-08-21T01:42:45.829Z,13.30
2023-08-21T01:44:47.445Z,13.02
2023-08-21T01:46:49.031Z,14.32
2023-08-21T01:48:50.502Z,14.15
2023-08-21T01:50:52.159Z,13.45
2023-08-21T01:52:53.681Z,13.88
2023-08-21T01:54:55.160Z,13.85
2023-08-21T01:56:56.877Z,14.18
2023-08-21T01:58:58.402Z,13.85
2023-08-21T02:01:00.008Z,14.43
2023-08-21T02:03:01.676Z,14.25
2023-08-21T02:05:03.513Z,13.65
2023-08-21T02:07:05.016Z,14.38
2023-08-21T02:09:06.545Z,14.02
2023-08-21T02:11:08.152Z,14.27
2023-08-21T02:13:09.597Z,14.77
2023-08-21T02:15:11.488Z,15.43
2023-08-21T02:17:13.254Z,14.82
2023-08-21T02:19:14.780Z,14.05
2023-08-21T02:21:16.419Z,14.13
2023-08-21T02:23:18.171Z,13.85
2023-08-21T02:25:19.675Z,14.30
2023-08-21T02:27:21.353Z,14.52
2023-08-21T02:29:22.980Z,14.43
2023-08-21T02:31:24.550Z,13.98
2023-08-21T02:33:26.169Z,14.30
2023-08-21T02:35:27.760Z,14.95
2023-08-21T02:37:29.190Z,13.98
2023-08-21T02:39:30.700Z,14.40
2023-08-21T02:41:32.214Z,14.40
2023-08-21T02:43:34.332Z,14.77
2023-08-21T02:45:35.865Z,13.95
2023-08-21T02:47:41.447Z,14.25
2023-08-21T02:49:43.189Z,14.48
2023-08-21T02:51:44.837Z,14.52
2023-08-21T02:53:46.375Z,14.60
2023-08-21T02:55:47.813Z,16.17
2023-08-21T02:57:49.469Z,14.82
2023-08-21T02:59:51.156Z,14.70
2023-08-21T03:01:52.656Z,14.02
2023-08-21T03:03:54.281Z,14.50
2023-08-21T03:05:55.806Z,15.82
2023-08-21T03:07:57.270Z,15.55
2023-08-21T03:09:58.906Z,15.10
2023-08-21T03:12:00.544Z,16.15
2023-08-21T03:14:02.007Z,16.08
2023-08-21T03:16:03.529Z,16.27
2023-08-21T03:18:05.255Z,15.93
2023-08-21T03:20:07.297Z,16.15
2023-08-21T03:22:08.864Z,16.33
2023-08-21T03:24:10.456Z,14.43
2023-08-21T03:26:11.892Z,15.70
2023-08-21T03:28:14.102Z,15.15
2023-08-21T03:30:16.429Z,15.20
2023-08-21T03:32:18.713Z,15.93
2023-08-21T03:34:20.267Z,15.82
2023-08-21T03:36:22.123Z,15.43
2023-08-21T03:38:23.552Z,16.13
2023-08-21T03:40:25.284Z,15.55
2023-08-21T03:42:26.948Z,15.18
2023-08-21T03:44:28.376Z,15.02
2023-08-21T03:46:30.020Z,15.35
2023-08-21T03:48:31.678Z,15.48
2023-08-21T03:50:33.117Z,14.15
2023-08-21T03:52:34.741Z,14.48
2023-08-21T03:54:36.524Z,15.20
2023-08-21T03:56:38.228Z,14.82
2023-08-21T03:58:39.847Z,14.52
2023-08-21T04:00:41.409Z,14.98
2023-08-21T04:02:43.710Z,14.23
2023-08-21T04:04:45.338Z,15.80
2023-08-21T04:06:46.844Z,14.35
2023-08-21T04:08:48.337Z,15.10
2023-08-21T04:10:50.233Z,15.00
2023-08-21T04:12:51.652Z,14.82
2023-08-21T04:14:53.106Z,15.38
2023-08-21T04:16:54.875Z,15.52
2023-08-21T04:18:56.321Z,15.07
2023-08-21T04:20:57.781Z,15.20
2023-08-21T04:22:59.407Z,14.00
2023-08-21T04:25:01.370Z,14.88
2023-08-21T04:27:02.869Z,14.73
2023-08-21T04:29:04.659Z,14.15
2023-08-21T04:31:07.221Z,14.68
2023-08-21T04:33:08.787Z,14.40
2023-08-21T04:35:10.646Z,14.70
2023-08-21T04:37:12.097Z,14.90
2023-08-21T04:39:13.610Z,14.50
2023-08-21T04:41:15.196Z,13.60
2023-08-21T04:43:16.648Z,14.40
2023-08-21T04:45:18.223Z,14.45
2023-08-21T04:47:24.628Z,13.77
2023-08-21T04:49:26.201Z,14.73
2023-08-21T04:51:27.844Z,14.07
2023-08-21T04:53:29.379Z,15.32
2023-08-21T04:55:30.814Z,13.88
2023-08-21T04:57:32.256Z,14.50
2023-08-21T04:59:33.918Z,14.35
2023-08-21T05:01:35.393Z,15.15
2023-08-21T05:03:36.994Z,14.82
2023-08-21T05:05:38.914Z,14.68
2023-08-21T05:07:40.430Z,14.15
2023-08-21T05:09:41.859Z,14.63
2023-08-21T05:11:43.716Z,14.10
2023-08-21T05:13:45.164Z,12.48
2023-08-21T05:16:02.801Z,13.98
2023-08-21T05:18:04.694Z,14.13
2023-08-21T05:20:06.587Z,13.38
2023-08-21T05:22:08.192Z,14.68
2023-08-21T05:24:10.115Z,14.25
2023-08-21T05:26:11.607Z,14.10
2023-08-21T05:28:13.126Z,15.50
2023-08-21T05:30:14.793Z,13.68
2023-08-21T05:32:16.244Z,15.18
2023-08-21T05:34:17.723Z,14.00
2023-08-21T05:36:19.621Z,11.80
2023-08-21T05:38:21.041Z,11.27
2023-08-21T05:40:22.546Z,11.38
2023-08-21T05:42:24.155Z,10.88
2023-08-21T05:44:25.603Z,10.07
2023-08-21T05:46:27.086Z,10.27
2023-08-21T05:48:29.242Z,10.00
2023-08-21T05:50:30.825Z,10.32
2023-08-21T05:52:32.256Z,10.90
2023-08-21T05:54:34.028Z,10.77
2023-08-21T05:56:35.483Z,10.63
2023-08-21T05:58:38.455Z,11.50
2023-08-21T06:00:42.723Z,10.90
2023-08-21T06:02:44.282Z,11.20
2023-08-21T06:04:46.692Z,11.10
2023-08-21T06:06:48.380Z,10.93
2023-08-21T06:08:49.844Z,10.18
2023-08-21T06:10:54.127Z,11.85
2023-08-21T06:12:56.172Z,10.70
2023-08-21T06:14:57.614Z,11.27
2023-08-21T06:17:01.612Z,10.73
2023-08-21T06:19:03.437Z,11.20
2023-08-21T06:21:04.894Z,11.88
2023-08-21T06:23:06.350Z,11.43
2023-08-21T06:25:10.471Z,11.63
2023-08-21T06:27:11.939Z,11.45
2023-08-21T06:29:13.387Z,12.68
2023-08-21T06:31:16.273Z,13.00
2023-08-21T06:33:17.812Z,12.32
2023-08-21T06:35:19.275Z,11.52
2023-08-21T06:37:21.186Z,13.38
2023-08-21T06:39:22.657Z,13.90
2023-08-21T06:41:24.129Z,13.32
2023-08-21T06:43:26.327Z,14.30
2023-08-21T06:45:27.879Z,14.27
2023-08-21T06:47:29.322Z,13.20
2023-08-21T06:49:31.161Z,13.73
2023-08-21T06:51:32.646Z,13.60
2023-08-21T06:53:34.146Z,13.77
2023-08-21T06:55:35.908Z,12.75
2023-08-21T06:57:37.349Z,12.18
2023-08-21T06:59:40.679Z,11.25
2023-08-21T07:01:43.831Z,10.45
2023-08-21T07:03:45.252Z,11.10
2023-08-21T07:06:00.859Z,10.82
2023-08-21T07:08:02.863Z,10.43
2023-08-21T07:10:04.612Z,11.05
2023-08-21T07:12:06.692Z,10.35
2023-08-21T07:14:08.647Z,10.05
2023-08-21T07:16:10.189Z,10.70
2023-08-21T07:18:11.940Z,10.73
2023-08-21T07:20:13.902Z,10.95
2023-08-21T07:22:15.405Z,11.77
2023-08-21T07:24:16.849Z,12.07
2023-08-21T07:26:18.522Z,11.38
2023-08-21T07:28:19.984Z,11.48
2023-08-21T07:30:22.337Z,11.48
2023-08-21T07:32:24.076Z,10.65
2023-08-21T07:34:25.519Z,10.80
2023-08-21T07:36:26.954Z,10.10
2023-08-21T07:38:28.823Z,9.20
2023-08-21T07:40:30.355Z,10.50
2023-08-21T07:42:31.834Z,9.50
2023-08-21T07:44:33.703Z,8.98
2023-08-21T07:46:35.192Z,8.40
2023-08-21T07:48:36.791Z,7.50
2023-08-21T07:50:38.519Z,7.60
2023-08-21T07:52:40.112Z,7.82
2023-08-21T07:54:41.839Z,7.25
2023-08-21T07:56:43.535Z,7.10
2023-08-21T07:58:44.966Z,7.45
2023-08-21T08:00:46.920Z,7.05
2023-08-21T08:02:48.514Z,7.03
2023-08-21T08:04:50.054Z,6.78
2023-08-21T08:06:51.489Z,6.82
2023-08-21T08:08:53.116Z,6.57
2023-08-21T08:10:55.836Z,5.38
2023-08-21T08:12:57.390Z,6.45
2023-08-21T08:14:59.034Z,5.57
2023-08-21T08:17:00.482Z,5.82
2023-08-21T08:19:01.919Z,6.43
2023-08-21T08:21:03.540Z,6.55
2023-08-21T08:23:05.085Z,6.65
2023-08-21T08:25:07.053Z,6.55
2023-08-21T08:27:08.625Z,6.35
2023-08-21T08:29:10.599Z,6.93
2023-08-21T08:31:16.685Z,5.57
2023-08-21T08:33:18.382Z,3.15
2023-08-21T08:35:19.921Z,3.22
2023-08-21T08:37:21.568Z,3.22
2023-08-21T08:39:23.269Z,2.70
2023-08-21T08:41:49.574Z,2.42
2023-08-21T08:43:51.147Z,2.30
2023-08-21T08:45:55.764Z,2.60
2023-08-21T08:48:00.738Z,2.58
2023-08-21T08:50:04.031Z,3.17
2023-08-21T08:52:06.083Z,2.33
2023-08-21T08:54:07.796Z,2.58
2023-08-21T08:56:09.536Z,3.47
2023-08-21T08:58:11.445Z,2.85
2023-08-21T09:00:13.599Z,2.80
2023-08-21T09:02:16.949Z,2.72
2023-08-21T09:04:18.881Z,3.15
2023-08-21T09:06:20.364Z,2.58
2023-08-21T09:08:21.877Z,2.70
2023-08-21T09:10:26.733Z,2.90
2023-08-21T09:12:28.226Z,3.08
2023-08-21T09:14:30.597Z,2.72
2023-08-21T09:16:32.665Z,2.80
2023-08-21T09:18:35.336Z,3.05
2023-08-21T09:20:37.010Z,2.50
2023-08-21T09:22:39.090Z,2.60
2023-08-21T09:24:41.722Z,2.75
2023-08-21T09:26:43.142Z,2.73
2023-08-21T09:28:44.814Z,2.58
2023-08-21T09:30:49.008Z,2.25
2023-08-21T09:32:58.271Z,2.40
2023-08-21T09:35:00.120Z,2.30
2023-08-21T09:37:01.570Z,2.20
2023-08-21T09:39:03.521Z,2.20
2023-08-21T09:41:05.087Z,2.35
2023-08-21T09:43:06.612Z,1.90
2023-08-21T09:45:08.987Z,2.00
2023-08-21T09:47:13.737Z,1.58
2023-08-21T09:49:18.152Z,1.85
2023-08-21T09:51:19.913Z,2.08
2023-08-21T09:53:22.114Z,1.70
2023-08-21T09:55:23.849Z,1.98
2023-08-21T09:57:25.320Z,2.28
2023-08-21T09:59:27.326Z,2.17
2023-08-21T10:01:29.941Z,2.08
2023-08-21T10:03:33.295Z,2.10
2023-08-21T10:07:38.475Z,2.00
2023-08-21T10:09:42.685Z,1.73
2023-08-21T10:11:45.003Z,2.00
2023-08-21T10:13:46.980Z,1.52
2023-08-21T10:15:49.073Z,1.50
2023-08-21T10:17:50.920Z,1.40
2023-08-21T10:19:53.149Z,1.48
2023-08-21T10:21:56.544Z,1.45
2023-08-21T10:26:02.460Z,1.70
2023-08-21T10:28:04.549Z,1.33
2023-08-21T10:30:14.425Z,1.40
2023-08-21T10:32:23.309Z,1.45
2023-08-21T10:34:33.187Z,1.77
2023-08-21T10:36:43.638Z,1.88
2023-08-21T10:38:59.881Z,1.80
2023-08-21T10:41:08.366Z,1.95
2023-08-21T10:43:38.365Z,1.83
2023-08-21T10:45:54.689Z,1.90
2023-08-21T10:48:00.276Z,2.00
2023-08-21T10:50:07.047Z,1.50
2023-08-21T10:52:10.012Z,1.80
2023-08-21T10:54:12.617Z,1.70
2023-08-21T10:56:14.493Z,1.85
2023-08-21T10:58:16.017Z,1.70
2023-08-21T11:00:19.395Z,2.08
2023-08-21T11:04:22.700Z,1.83
2023-08-21T11:06:24.230Z,2.10
2023-08-21T11:08:25.883Z,1.65
2023-08-21T11:10:31.445Z,1.70
2023-08-21T11:12:32.966Z,1.50
2023-08-21T11:14:34.761Z,1.85
2023-08-21T11:16:36.452Z,1.48
2023-08-21T11:18:38.936Z,1.35
2023-08-21T11:20:42.137Z,1.30
2023-08-21T11:22:45.624Z,1.70
2023-08-21T11:24:48.699Z,1.50
2023-08-21T11:26:50.381Z,1.85
2023-08-21T11:28:52.253Z,1.52
2023-08-21T11:30:56.453Z,1.75
2023-08-21T11:33:24.841Z,1.55
2023-08-21T11:35:26.425Z,1.20
2023-08-21T11:37:28.433Z,1.67
2023-08-21T11:39:43.446Z,1.77
2023-08-21T11:41:58.081Z,1.65
2023-08-21T11:44:04.108Z,1.35
2023-08-21T11:46:06.996Z,1.73
2023-08-21T11:48:08.658Z,1.80
2023-08-21T11:50:10.397Z,1.67
2023-08-21T11:52:12.672Z,1.40
2023-08-21T11:54:14.121Z,1.50
2023-08-21T11:56:17.405Z,1.42
2023-08-21T11:58:19.989Z,1.73
2023-08-21T12:00:28.691Z,1.50
2023-08-21T12:02:30.548Z,1.50
2023-08-21T12:04:32.055Z,1.45
2023-08-21T12:06:33.617Z,1.50
2023-08-21T12:08:35.709Z,1.85
2023-08-21T12:10:40.424Z,1.38
2023-08-21T12:12:43.080Z,1.52
2023-08-21T12:14:44.851Z,1.52
2023-08-21T12:16:46.419Z,1.25
2023-08-21T12:18:48.067Z,1.50
2023-08-21T12:20:49.584Z,1.35
2023-08-21T12:22:51.295Z,1.40
2023-08-21T12:24:53.065Z,1.83
2023-08-21T12:26:54.577Z,1.23
2023-08-21T12:28:56.068Z,1.42
2023-08-21T12:30:57.607Z,1.80
2023-08-21T12:33:06.351Z,2.33
2023-08-21T12:35:18.418Z,1.80
2023-08-21T12:37:19.953Z,1.50
2023-08-21T12:39:21.408Z,1.90
2023-08-21T12:41:22.942Z,1.80
2023-08-21T12:43:24.564Z,1.75
2023-08-21T12:45:25.995Z,1.58
2023-08-21T12:47:27.623Z,1.60
2023-08-21T12:49:29.188Z,1.73
2023-08-21T12:51:31.406Z,1.50
2023-08-21T12:53:33.108Z,1.55
2023-08-21T12:55:34.861Z,1.80
2023-08-21T12:57:36.532Z,1.40
2023-08-21T12:59:38.781Z,1.80
2023-08-21T13:01:40.480Z,1.85
2023-08-21T13:03:48.364Z,1.70
2023-08-21T13:05:50.375Z,1.70
2023-08-21T13:07:52.042Z,1.80
2023-08-21T13:09:53.494Z,1.50
2023-08-21T13:11:55.930Z,1.80
2023-08-21T13:13:57.675Z,1.50
2023-08-21T13:15:59.205Z,1.80
2023-08-21T13:18:01.067Z,1.50
2023-08-21T13:20:03.254Z,1.65
2023-08-21T13:22:04.729Z,1.58
2023-08-21T13:24:06.388Z,1.80
2023-08-21T13:26:07.975Z,1.85
2023-08-21T13:28:11.293Z,1.67
2023-08-21T13:30:14.699Z,1.52
2023-08-21T13:32:16.422Z,1.35
2023-08-21T13:34:17.971Z,1.40
2023-08-21T13:36:19.572Z,1.52
2023-08-21T13:38:21.113Z,1.90
2023-08-21T13:40:22.585Z,1.92
2023-08-21T13:42:24.123Z,1.48
2023-08-21T13:44:25.680Z,1.58
2023-08-21T13:46:27.116Z,1.90
2023-08-21T13:48:29.090Z,1.40
2023-08-21T13:50:30.868Z,1.80
2023-08-21T13:52:32.519Z,2.10
2023-08-21T13:54:34.189Z,1.52
2023-08-21T13:56:35.755Z,1.70
2023-08-21T13:58:37.514Z,1.90
2023-08-21T14:00:39.316Z,1.48
2023-08-21T14:02:42.147Z,2.58
2023-08-21T14:04:43.797Z,2.17
2023-08-21T14:06:45.688Z,4.50
2023-08-21T14:08:47.216Z,1.80
2023-08-21T14:10:48.640Z,1.80
2023-08-21T14:12:50.265Z,5.00
2023-08-21T14:14:51.847Z,2.67
2023-08-21T14:16:53.341Z,1.98
2023-08-21T14:18:54.900Z,1.85
2023-08-21T14:20:56.624Z,1.95
2023-08-21T14:22:58.151Z,1.80
2023-08-21T14:25:00.641Z,1.98
2023-08-21T14:27:03.593Z,1.60
2023-08-21T14:29:05.025Z,1.80
2023-08-21T14:31:06.679Z,1.65
2023-08-21T14:33:08.256Z,1.40
2023-08-21T14:35:10.089Z,1.85
2023-08-21T14:37:11.724Z,1.55
2023-08-21T14:39:13.576Z,1.85
2023-08-21T14:41:15.042Z,1.73
2023-08-21T14:43:16.573Z,1.90
2023-08-21T14:45:18.303Z,1.67
2023-08-21T14:47:19.772Z,1.85
2023-08-21T14:49:21.910Z,1.92
2023-08-21T14:51:23.634Z,1.80
2023-08-21T14:53:27.626Z,2.03
2023-08-21T14:55:29.575Z,1.75
2023-08-21T14:57:31.150Z,1.45
2023-08-21T14:59:32.682Z,2.22
2023-08-21T15:01:34.403Z,2.05
2023-08-21T15:03:36.058Z,2.10
2023-08-21T15:05:37.555Z,1.73
2023-08-21T15:07:39.369Z,1.90
2023-08-21T15:09:41.184Z,2.30
2023-08-21T15:11:42.601Z,1.92
2023-08-21T15:13:44.326Z,1.70
2023-08-21T15:15:45.959Z,2.03
2023-08-21T15:17:48.028Z,1.75
2023-08-21T15:19:49.774Z,1.50
2023-08-21T15:21:51.338Z,1.80
2023-08-21T15:23:52.775Z,1.92
2023-08-21T15:25:54.392Z,2.25
2023-08-21T15:27:55.999Z,1.90
2023-08-21T15:29:57.459Z,1.52
2023-08-21T15:31:59.123Z,2.08
2023-08-21T15:34:00.887Z,1.90
2023-08-21T15:36:02.975Z,1.95
2023-08-21T15:38:04.526Z,2.15
2023-08-21T15:40:06.695Z,1.85
2023-08-21T15:42:08.132Z,1.90
2023-08-21T15:44:09.618Z,2.10
2023-08-21T15:46:11.210Z,1.92
2023-08-21T15:48:12.812Z,1.90
2023-08-21T15:50:14.379Z,1.85
2023-08-21T15:52:15.942Z,1.70
2023-08-21T15:54:20.424Z,1.58
2023-08-21T15:56:21.980Z,2.00
2023-08-21T15:58:23.519Z,1.67
2023-08-21T16:00:24.977Z,1.90
2023-08-21T16:02:26.667Z,1.90
2023-08-21T16:04:28.440Z,1.83
2023-08-21T16:06:30.256Z,1.90
2023-08-21T16:08:31.925Z,1.85
2023-08-21T16:10:33.556Z,2.00
2023-08-21T16:12:35.175Z,2.00
2023-08-21T16:14:36.874Z,2.03
2023-08-21T16:16:38.697Z,2.25
2023-08-21T16:18:40.332Z,2.67
2023-08-21T16:20:41.899Z,1.92
2023-08-21T16:22:43.609Z,1.70
2023-08-21T16:24:45.166Z,1.60
2023-08-21T16:26:46.765Z,1.90
2023-08-21T16:28:48.302Z,1.90
2023-08-21T16:30:49.729Z,1.90
2023-08-21T16:32:51.412Z,1.45
2023-08-21T16:34:52.982Z,1.90
2023-08-21T16:36:54.590Z,1.75
2023-08-21T16:38:56.413Z,1.55
2023-08-21T16:40:58.051Z,1.77
2023-08-21T16:42:59.495Z,2.10
2023-08-21T16:45:01.102Z,2.03
2023-08-21T16:47:02.709Z,1.95
2023-08-21T16:49:04.150Z,1.90
2023-08-21T16:51:05.856Z,2.00
2023-08-21T16:53:21.429Z,1.60
2023-08-21T16:55:24.696Z,1.90
2023-08-21T16:57:26.302Z,1.90
2023-08-21T16:59:27.835Z,1.92
2023-08-21T17:01:29.440Z,1.80
2023-08-21T17:03:31.143Z,1.90
2023-08-21T17:05:32.911Z,2.20
2023-08-21T17:07:34.914Z,2.05
2023-08-21T17:09:36.455Z,1.70
2023-08-21T17:11:38.536Z,2.28
2023-08-21T17:13:40.130Z,2.10
2023-08-21T17:15:41.841Z,1.88
2023-08-21T17:17:43.494Z,2.33
2023-08-21T17:19:45.807Z,1.77
2023-08-21T17:21:47.421Z,1.95
2023-08-21T17:23:48.959Z,1.90
2023-08-21T17:25:50.431Z,2.15
2023-08-21T17:27:52.018Z,2.10
2023-08-21T17:29:53.530Z,2.10
2023-08-21T17:31:54.994Z,2.05
2023-08-21T17:33:56.653Z,2.03
2023-08-21T17:35:58.202Z,2.10
2023-08-21T17:37:59.709Z,2.30
2023-08-21T17:40:01.444Z,7.35
2023-08-21T17:42:03.806Z,20.45
2023-08-21T17:44:05.361Z,4.00
2023-08-21T17:46:06.905Z,3.00
2023-08-21T17:48:08.598Z,2.25
2023-08-21T17:50:10.159Z,7.82
2023-08-21T17:52:11.635Z,4.85
2023-08-21T17:54:13.204Z,4.95
2023-08-21T17:56:14.623Z,19.23
2023-08-21T17:58:16.078Z,23.55
2023-08-21T18:00:17.957Z,25.35
2023-08-21T18:02:27.382Z,18.83
2023-08-21T18:04:29.291Z,21.67
2023-08-21T18:06:30.967Z,12.18
2023-08-21T18:08:32.432Z,8.57
2023-08-21T18:10:34.617Z,8.85
2023-08-21T18:12:36.963Z,9.48
2023-08-21T18:14:38.394Z,5.82
2023-08-21T18:16:39.874Z,5.30
2023-08-21T18:18:41.342Z,4.65
2023-08-21T18:20:54.139Z,4.00
2023-08-21T18:22:55.765Z,4.95
2023-08-21T18:24:57.347Z,5.90
2023-08-21T18:26:58.809Z,5.15
2023-08-21T18:29:00.354Z,5.13
2023-08-21T18:31:01.972Z,4.90
2023-08-21T18:33:04.515Z,4.53
2023-08-21T18:35:06.701Z,3.85
2023-08-21T18:37:09.701Z,3.28
2023-08-21T18:39:11.275Z,4.15
2023-08-21T18:41:12.731Z,3.40
2023-08-21T18:43:14.488Z,4.10
2023-08-21T18:45:16.000Z,4.22
2023-08-21T18:47:17.544Z,5.20
2023-08-21T18:49:19.284Z,10.88
2023-08-21T18:51:20.799Z,8.63
2023-08-21T18:53:22.428Z,4.85
2023-08-21T18:55:23.861Z,3.78
2023-08-21T18:57:25.355Z,3.25
2023-08-21T18:59:26.816Z,3.72
2023-08-21T19:01:28.714Z,4.40
2023-08-21T19:03:30.430Z,4.88
2023-08-21T19:05:32.141Z,4.90
2023-08-21T19:07:33.790Z,4.13
2023-08-21T19:09:35.336Z,4.47
2023-08-21T19:11:37.500Z,4.03
2023-08-21T19:13:39.141Z,4.03
2023-08-21T19:15:40.610Z,4.22
2023-08-21T19:17:42.988Z,4.78
2023-08-21T19:19:44.552Z,4.57
2023-08-21T19:21:47.056Z,6.03
2023-08-21T19:23:48.696Z,11.35
2023-08-21T19:25:50.157Z,19.08
2023-08-21T19:27:51.634Z,34.40
2023-08-21T19:29:53.073Z,12.07
2023-08-21T19:31:54.749Z,13.20
2023-08-21T19:33:57.856Z,14.30
2023-08-21T19:35:59.506Z,11.38
2023-08-21T19:38:01.284Z,13.50
2023-08-21T19:40:02.727Z,8.88
2023-08-21T19:42:04.670Z,11.27
2023-08-21T19:44:06.157Z,8.57
2023-08-21T19:46:07.708Z,8.50
2023-08-21T19:48:09.479Z,6.95
2023-08-21T19:50:11.104Z,6.15
2023-08-21T19:52:12.541Z,6.15
2023-08-21T19:54:13.995Z,5.25
2023-08-21T19:56:15.833Z,6.32
2023-08-21T19:58:17.267Z,7.07
2023-08-21T20:00:18.699Z,6.95
2023-08-21T20:02:20.223Z,6.40
2023-08-21T20:04:21.725Z,6.25
2023-08-21T20:06:23.190Z,6.88
2023-08-21T20:08:24.812Z,6.03
2023-08-21T20:10:26.267Z,6.88
2023-08-21T20:12:27.789Z,5.80
2023-08-21T20:14:29.473Z,6.70
2023-08-21T20:16:31.146Z,6.57
2023-08-21T20:18:32.757Z,6.07
2023-08-21T20:20:34.314Z,6.32
2023-08-21T20:22:35.768Z,5.35
2023-08-21T20:24:37.323Z,6.15
2023-08-21T20:26:38.912Z,8.57
2023-08-21T20:28:40.351Z,6.32
2023-08-21T20:30:42.029Z,4.85
2023-08-21T20:32:43.580Z,4.10
2023-08-21T20:34:45.134Z,3.83
2023-08-21T20:36:46.708Z,4.10
2023-08-21T20:38:48.235Z,4.00
2023-08-21T20:40:52.709Z,3.95
2023-08-21T20:42:54.696Z,4.43
2023-08-21T20:44:56.253Z,6.75
2023-08-21T20:46:57.754Z,3.50
2023-08-21T20:48:59.420Z,7.90
2023-08-21T20:51:01.412Z,4.00
2023-08-21T20:53:02.923Z,4.05
2023-08-21T20:55:04.722Z,4.45
2023-08-21T20:57:06.268Z,4.50
2023-08-21T20:59:07.703Z,7.05
2023-08-21T21:01:09.166Z,4.90
2023-08-21T21:03:10.961Z,4.57
2023-08-21T21:05:12.565Z,4.43
2023-08-21T21:07:14.959Z,4.70
2023-08-21T21:09:16.415Z,4.78
2023-08-21T21:11:17.861Z,4.47
2023-08-21T21:13:19.430Z,4.18
2023-08-21T21:15:20.959Z,4.20
2023-08-21T21:17:22.428Z,4.03
2023-08-21T21:19:24.516Z,4.03
2023-08-21T21:21:26.286Z,3.88
2023-08-21T21:23:27.746Z,4.00
2023-08-21T21:25:29.379Z,3.63
2023-08-21T21:27:30.957Z,3.90
2023-08-21T21:29:33.536Z,4.05
2023-08-21T21:31:36.765Z,4.20
2023-08-21T21:33:38.379Z,3.95
2023-08-21T21:35:39.852Z,3.70
2023-08-21T21:37:41.734Z,4.20
2023-08-21T21:39:43.963Z,4.25
2023-08-21T21:41:45.455Z,3.90
2023-08-21T21:43:47.148Z,3.42
2023-08-21T21:45:56.468Z,3.60
2023-08-21T21:47:57.990Z,3.40
2023-08-21T21:49:59.566Z,3.47
2023-08-21T21:52:01.142Z,3.45
2023-08-21T21:54:02.839Z,3.20
2023-08-21T21:56:04.655Z,3.03
2023-08-21T21:58:06.284Z,3.25
2023-08-21T22:00:08.400Z,3.15
2023-08-21T22:02:10.140Z,3.20
2023-08-21T22:04:11.960Z,3.10
2023-08-21T22:06:13.496Z,2.97
2023-08-21T22:08:15.676Z,3.15
2023-08-21T22:10:17.320Z,2.70
2023-08-21T22:12:18.806Z,3.00
2023-08-21T22:14:20.436Z,2.78
2023-08-21T22:16:21.946Z,2.60
2023-08-21T22:18:23.432Z,3.00
2023-08-21T22:20:24.989Z,2.60
2023-08-21T22:22:26.611Z,3.35
2023-08-21T22:24:28.434Z,2.83
2023-08-21T22:26:29.950Z,2.80
2023-08-21T22:28:31.666Z,2.80
2023-08-21T22:30:33.141Z,2.92
2023-08-21T22:32:35.716Z,3.03
2023-08-21T22:34:37.242Z,3.10
2023-08-21T22:36:38.681Z,2.72
2023-08-21T22:38:40.370Z,2.80
2023-08-21T22:40:41.945Z,3.00
2023-08-21T22:42:43.391Z,2.65
2023-08-21T22:44:45.013Z,2.42
2023-08-21T22:46:46.600Z,2.60
2023-08-21T22:48:48.133Z,2.88
2023-08-21T22:50:49.860Z,2.55
2023-08-21T22:52:51.464Z,2.90
2023-08-21T22:54:52.929Z,2.45
2023-08-21T22:56:54.478Z,2.92
2023-08-21T22:58:56.110Z,2.53
2023-08-21T23:00:58.480Z,2.70
2023-08-21T23:03:00.195Z,2.90
2023-08-21T23:05:01.864Z,2.92
2023-08-21T23:07:03.651Z,2.78
2023-08-21T23:09:05.342Z,2.97
2023-08-21T23:11:07.004Z,3.08
2023-08-21T23:13:08.439Z,2.92
2023-08-21T23:15:10.374Z,3.13
2023-08-21T23:17:11.978Z,2.83
2023-08-21T23:19:17.573Z,3.90
2023-08-21T23:21:19.244Z,2.75
2023-08-21T23:23:20.767Z,2.90
2023-08-21T23:25:22.198Z,3.10
2023-08-21T23:27:23.700Z,2.85
2023-08-21T23:29:25.333Z,2.63
2023-08-21T23:31:26.828Z,2.70
2023-08-21T23:33:28.439Z,2.42
2023-08-21T23:35:30.133Z,2.72
2023-08-21T23:37:31.569Z,2.80
2023-08-21T23:39:33.173Z,3.20
2023-08-21T23:41:35.566Z,2.83
2023-08-21T23:43:36.987Z,3.03
2023-08-21T23:45:38.922Z,3.13
2023-08-21T23:47:40.875Z,2.67
2023-08-21T23:49:42.515Z,2.97
2023-08-21T23:51:44.165Z,2.78
2023-08-21T23:53:45.788Z,2.55
2023-08-21T23:55:47.208Z,2.65
2023-08-21T23:57:48.885Z,2.60
2023-08-21T23:59:50.405Z,2.75
